createdAt,value
2023-03-29T00:00:36.414Z,59.93
2023-03-29T00:05:57.889Z,59.70
2023-03-29T00:11:02.061Z,59.94
2023-03-29T00:16:06.516Z,60.61
2023-03-29T00:21:10.695Z,61.21
2023-03-29T00:26:14.265Z,61.49
2023-03-29T00:31:18.961Z,61.52
2023-03-29T00:36:23.704Z,61.76
2023-03-29T00:41:27.545Z,61.95
2023-03-29T00:46:32.621Z,62.35
2023-03-29T00:51:41.700Z,62.43
2023-03-29T00:56:50.354Z,62.62
2023-03-29T01:02:03.705Z,62.77
2023-03-29T01:07:31.254Z,62.50
2023-03-29T01:12:47.202Z,62.85
2023-03-29T01:17:53.993Z,62.76
2023-03-29T01:23:40.610Z,62.75
2023-03-29T01:29:22.565Z,62.07
2023-03-29T01:34:51.988Z,62.13
2023-03-29T01:39:55.670Z,62.31
2023-03-29T01:45:20.274Z,62.37
2023-03-29T01:50:44.683Z,62.42
2023-03-29T01:55:57.278Z,62.27
2023-03-29T02:01:10.224Z,62.69
2023-03-29T02:06:21.740Z,63.11
2023-03-29T02:11:29.669Z,62.57
2023-03-29T02:16:39.378Z,62.55
2023-03-29T02:22:02.248Z,61.99
2023-03-29T02:27:06.370Z,61.94
2023-03-29T02:32:21.696Z,62.24
2023-03-29T02:37:30.577Z,62.59
2023-03-29T02:42:35.556Z,62.72
2023-03-29T02:47:47.760Z,63.03
2023-03-29T02:53:02.057Z,63.19
2023-03-29T02:58:08.801Z,63.18
2023-03-29T03:03:15.893Z,63.18
2023-03-29T03:08:20.219Z,63.31
2023-03-29T03:13:23.765Z,63.32
2023-03-29T03:18:28.153Z,63.22
2023-03-29T03:23:32.327Z,63.94
2023-03-29T03:28:35.933Z,63.12
2023-03-29T03:33:41.406Z,60.40
2023-03-29T03:38:45.585Z,60.22
2023-03-29T03:43:49.410Z,60.77
2023-03-29T03:48:53.095Z,61.37
2023-03-29T03:53:56.650Z,61.70
2023-03-29T03:59:00.202Z,61.30
2023-03-29T04:04:04.907Z,61.14
2023-03-29T04:09:09.742Z,61.52
2023-03-29T04:14:13.297Z,61.79
2023-03-29T04:19:17.191Z,61.57
2023-03-29T04:24:20.928Z,61.58
2023-03-29T04:29:24.613Z,61.72
2023-03-29T04:34:28.357Z,62.08
2023-03-29T04:39:34.387Z,62.46
2023-03-29T04:44:41.806Z,62.00
2023-03-29T04:49:46.202Z,62.41
2023-03-29T04:54:50.145Z,62.59
2023-03-29T04:59:54.174Z,62.27
2023-03-29T05:04:59.885Z,62.66
2023-03-29T05:10:08.464Z,61.94
2023-03-29T05:15:13.946Z,61.16
2023-03-29T05:20:19.034Z,58.38
2023-03-29T05:25:23.617Z,60.09
2023-03-29T05:30:27.237Z,63.12
2023-03-29T05:35:32.418Z,62.71
2023-03-29T05:40:36.221Z,62.53
2023-03-29T05:45:39.918Z,61.46
2023-03-29T05:50:52.643Z,60.73
2023-03-29T05:55:56.550Z,60.73
2023-03-29T06:01:00.909Z,59.23
2023-03-29T06:06:05.722Z,58.29
2023-03-29T06:11:13.663Z,63.02
2023-03-29T06:16:17.315Z,62.93
2023-03-29T06:21:22.336Z,61.54
2023-03-29T06:26:28.437Z,60.42
2023-03-29T06:31:32.331Z,58.93
2023-03-29T06:36:36.000Z,59.72
2023-03-29T06:41:39.813Z,63.54
2023-03-29T06:46:44.289Z,62.66
2023-03-29T06:51:49.206Z,61.03
2023-03-29T06:56:55.117Z,59.78
2023-03-29T07:01:59.058Z,59.48
2023-03-29T07:07:03.938Z,62.29
2023-03-29T07:12:09.289Z,62.19
2023-03-29T07:17:13.723Z,60.20
2023-03-29T07:22:17.416Z,59.93
2023-03-29T07:27:21.167Z,58.82
2023-03-29T07:32:25.084Z,61.72
2023-03-29T07:37:28.795Z,61.74
2023-03-29T07:42:32.423Z,59.50
2023-03-29T07:47:36.727Z,59.55
2023-03-29T07:52:41.226Z,61.24
2023-03-29T07:57:45.109Z,61.69
2023-03-29T08:02:52.789Z,62.21
2023-03-29T08:07:56.771Z,58.76
2023-03-29T08:13:01.389Z,57.14
2023-03-29T08:18:07.765Z,57.92
2023-03-29T08:23:11.740Z,59.15
2023-03-29T08:28:15.386Z,59.46
2023-03-29T08:33:19.721Z,59.04
2023-03-29T08:38:23.429Z,57.77
2023-03-29T08:43:51.898Z,55.41
2023-03-29T08:49:03.293Z,54.94
2023-03-29T08:54:17.561Z,54.81
2023-03-29T08:59:30.156Z,54.54
2023-03-29T09:04:36.872Z,53.84
2023-03-29T09:09:43.158Z,50.48
2023-03-29T09:15:11.966Z,46.38
2023-03-29T09:20:37.732Z,45.64
2023-03-29T09:26:10.383Z,43.56
2023-03-29T09:31:23.245Z,42.15
2023-03-29T09:36:46.808Z,42.56
2023-03-29T09:42:00.127Z,42.86
2023-03-29T09:47:17.617Z,42.08
2023-03-29T09:52:21.784Z,41.59
2023-03-29T09:57:27.729Z,41.95
2023-03-29T10:02:32.838Z,42.45
2023-03-29T10:07:46.653Z,42.59
2023-03-29T10:12:57.258Z,40.90
2023-03-29T10:18:12.132Z,38.81
2023-03-29T10:23:19.089Z,40.53
2023-03-29T10:28:23.341Z,39.38
2023-03-29T10:33:33.499Z,39.77
2023-03-29T10:38:38.515Z,37.03
2023-03-29T10:43:51.246Z,36.02
2023-03-29T10:49:10.742Z,35.44
2023-03-29T10:54:20.699Z,36.56
2023-03-29T10:59:28.832Z,36.41
2023-03-29T11:05:31.337Z,36.60
2023-03-29T11:11:01.154Z,37.31
2023-03-29T11:16:29.095Z,35.28
2023-03-29T11:22:05.791Z,34.72
2023-03-29T11:27:51.544Z,36.02
2023-03-29T11:33:46.463Z,36.58
2023-03-29T11:39:45.405Z,35.82
2023-03-29T11:44:55.213Z,35.14
2023-03-29T11:50:28.980Z,33.22
2023-03-29T11:55:38.415Z,32.43
2023-03-29T12:01:04.690Z,32.38
2023-03-29T12:06:15.843Z,31.09
2023-03-29T12:11:49.178Z,31.44
2023-03-29T12:17:05.715Z,32.14
2023-03-29T12:22:10.120Z,31.78
2023-03-29T12:27:47.789Z,30.95
2023-03-29T12:33:03.509Z,32.47
2023-03-29T12:38:37.740Z,31.94
2023-03-29T12:43:43.817Z,32.64
2023-03-29T12:48:58.115Z,33.07
2023-03-29T12:54:16.225Z,31.57
2023-03-29T12:59:45.489Z,32.36
2023-03-29T13:05:00.590Z,33.44
2023-03-29T13:10:38.282Z,33.70
2023-03-29T13:15:45.343Z,32.21
2023-03-29T13:21:30.193Z,33.08
2023-03-29T13:27:15.748Z,33.10
2023-03-29T13:32:41.580Z,33.36
2023-03-29T13:38:07.611Z,32.95
2023-03-29T13:43:31.397Z,31.49
2023-03-29T13:48:38.012Z,32.13
2023-03-29T13:53:52.111Z,32.20
2023-03-29T13:59:25.843Z,33.25
2023-03-29T14:04:49.344Z,33.71
2023-03-29T14:09:57.230Z,33.83
2023-03-29T14:15:07.082Z,32.67
2023-03-29T14:20:16.434Z,33.01
2023-03-29T14:25:23.320Z,33.34
2023-03-29T14:30:29.810Z,33.74
2023-03-29T14:35:33.971Z,33.12
2023-03-29T14:40:38.884Z,33.62
2023-03-29T14:45:42.917Z,32.44
2023-03-29T14:50:47.871Z,30.49
2023-03-29T14:55:53.950Z,29.03
2023-03-29T15:00:58.358Z,29.71
2023-03-29T15:06:05.253Z,32.08
2023-03-29T15:11:27.887Z,33.02
2023-03-29T15:16:33.187Z,32.81
2023-03-29T15:21:37.100Z,32.68
2023-03-29T15:26:41.417Z,33.58
2023-03-29T15:31:59.384Z,34.77
2023-03-29T15:37:04.635Z,36.02
2023-03-29T15:42:10.172Z,37.09
2023-03-29T15:47:14.132Z,37.78
2023-03-29T15:52:18.086Z,38.41
2023-03-29T15:57:22.326Z,39.58
2023-03-29T16:02:26.348Z,40.47
2023-03-29T16:07:30.493Z,41.09
2023-03-29T16:12:36.101Z,41.67
2023-03-29T16:17:39.944Z,42.32
2023-03-29T16:22:43.977Z,42.95
2023-03-29T16:27:47.625Z,43.49
2023-03-29T16:32:52.075Z,43.76
2023-03-29T16:37:56.268Z,44.23
2023-03-29T16:43:00.500Z,44.53
2023-03-29T16:48:05.600Z,45.03
2023-03-29T16:53:10.660Z,45.62
2023-03-29T16:58:15.781Z,46.06
2023-03-29T17:03:20.428Z,46.48
2023-03-29T17:08:24.197Z,46.91
2023-03-29T17:13:28.449Z,47.30
2023-03-29T17:18:32.346Z,47.91
2023-03-29T17:23:36.545Z,48.51
2023-03-29T17:28:41.296Z,48.73
2023-03-29T17:33:45.693Z,49.33
2023-03-29T17:38:51.316Z,49.72
2023-03-29T17:43:54.843Z,49.87
2023-03-29T17:49:01.830Z,50.27
2023-03-29T17:54:06.540Z,50.57
2023-03-29T17:59:12.880Z,50.88
2023-03-29T18:04:17.273Z,51.08
2023-03-29T18:09:21.274Z,51.20
2023-03-29T18:14:25.083Z,51.41
2023-03-29T18:19:29.221Z,51.87
2023-03-29T18:24:34.126Z,52.14
2023-03-29T18:29:38.250Z,52.11
2023-03-29T18:34:41.798Z,52.20
2023-03-29T18:39:51.958Z,52.31
2023-03-29T18:44:56.245Z,52.21
2023-03-29T18:50:04.668Z,52.07
2023-03-29T18:55:24.474Z,52.30
2023-03-29T19:01:04.123Z,52.41
2023-03-29T19:10:45.270Z,52.93
2023-03-29T19:15:52.253Z,52.84
2023-03-29T19:20:59.502Z,52.77
2023-03-29T19:26:14.127Z,52.80
2023-03-29T19:31:21.006Z,52.78
2023-03-29T19:36:25.113Z,52.69
2023-03-29T19:41:29.136Z,52.50
2023-03-29T19:46:33.616Z,52.43
2023-03-29T19:51:39.857Z,52.24
2023-03-29T19:56:44.519Z,52.24
2023-03-29T20:01:51.250Z,52.35
2023-03-29T20:06:55.499Z,52.62
2023-03-29T20:12:00.243Z,52.94
2023-03-29T20:17:04.828Z,53.25
2023-03-29T20:22:09.042Z,53.50
2023-03-29T20:27:12.674Z,53.70
2023-03-29T20:32:16.620Z,54.22
2023-03-29T20:37:23.324Z,54.46
2023-03-29T20:42:28.974Z,54.64
2023-03-29T20:47:42.916Z,54.83
2023-03-29T20:52:47.650Z,55.35
2023-03-29T20:58:06.751Z,55.88
2023-03-29T21:03:11.521Z,55.85
2023-03-29T21:08:17.925Z,55.79
2023-03-29T21:13:21.941Z,55.69
2023-03-29T21:18:25.673Z,55.42
2023-03-29T21:23:29.197Z,55.28
2023-03-29T21:28:33.359Z,55.13
2023-03-29T21:33:37.047Z,55.04
2023-03-29T21:38:40.779Z,55.02
2023-03-29T21:43:44.667Z,54.95
2023-03-29T21:48:48.273Z,55.00
2023-03-29T21:53:52.041Z,55.01
2023-03-29T21:58:56.117Z,55.12
2023-03-29T22:03:59.754Z,55.32
2023-03-29T22:09:03.665Z,55.46
2023-03-29T22:14:08.661Z,55.63
2023-03-29T22:19:13.213Z,55.58
2023-03-29T22:24:17.564Z,55.76
2023-03-29T22:29:21.196Z,55.83
2023-03-29T22:34:25.303Z,55.93
2023-03-29T22:39:30.151Z,56.19
2023-03-29T22:44:34.397Z,56.24
2023-03-29T22:49:37.942Z,56.40
2023-03-29T22:54:41.587Z,56.45
2023-03-29T22:59:45.221Z,56.46
2023-03-29T23:04:49.380Z,56.51
2023-03-29T23:09:53.156Z,56.56
2023-03-29T23:14:57.318Z,56.63
2023-03-29T23:20:02.309Z,56.94
2023-03-29T23:25:06.729Z,57.08
2023-03-29T23:30:12.114Z,57.50
2023-03-29T23:35:16.776Z,57.69
2023-03-29T23:40:21.157Z,58.06
2023-03-29T23:45:26.975Z,58.22
2023-03-29T23:50:30.653Z,58.36
2023-03-29T23:55:34.632Z,58.69
